createdAt,value
2023-04-18T00:02:24.958Z,54.55
2023-04-18T00:04:56.839Z,54.30
2023-04-18T00:07:27.138Z,54.42
2023-04-18T00:09:57.426Z,54.41
2023-04-18T00:12:30.299Z,54.26
2023-04-18T00:15:01.298Z,54.81
2023-04-18T00:17:32.044Z,53.81
2023-04-18T00:20:02.600Z,53.91
2023-04-18T00:22:32.966Z,54.46
2023-04-18T00:25:03.429Z,54.75
2023-04-18T00:27:36.335Z,54.92
2023-04-18T00:30:07.344Z,54.50
2023-04-18T00:32:37.677Z,54.83
2023-04-18T00:35:08.911Z,54.66
2023-04-18T00:37:39.167Z,54.79
2023-04-18T00:40:11.771Z,54.34
2023-04-18T00:42:44.622Z,54.11
2023-04-18T00:45:14.907Z,54.58
2023-04-18T00:47:45.283Z,54.42
2023-04-18T00:50:16.469Z,54.65
2023-04-18T00:52:47.478Z,54.42
2023-04-18T00:55:18.857Z,54.34
2023-04-18T00:57:51.779Z,54.18
2023-04-18T01:00:22.352Z,54.86
2023-04-18T01:02:54.164Z,54.95
2023-04-18T01:05:25.628Z,54.95
2023-04-18T01:07:58.943Z,54.98
2023-04-18T01:10:30.101Z,54.01
2023-04-18T01:13:18.755Z,54.08
2023-04-18T01:15:51.270Z,54.53
2023-04-18T01:18:22.771Z,53.78
2023-04-18T01:20:54.117Z,53.66
2023-04-18T01:23:24.671Z,53.08
2023-04-18T01:25:57.538Z,53.60
2023-04-18T01:28:28.025Z,53.07
2023-04-18T01:30:58.281Z,52.50
2023-04-18T01:33:28.546Z,52.92
2023-04-18T01:35:58.773Z,53.03
2023-04-18T01:38:29.142Z,52.53
2023-04-18T01:41:02.670Z,52.72
2023-04-18T01:43:33.108Z,53.59
2023-04-18T01:46:03.458Z,53.26
2023-04-18T01:48:33.775Z,53.81
2023-04-18T01:51:04.019Z,53.67
2023-04-18T01:53:34.470Z,53.21
2023-04-18T01:56:07.637Z,53.20
2023-04-18T01:58:38.167Z,53.15
2023-04-18T02:01:08.694Z,52.84
2023-04-18T02:03:39.347Z,53.03
2023-04-18T02:06:10.322Z,53.08
2023-04-18T02:08:40.651Z,52.47
2023-04-18T02:11:13.584Z,52.72
2023-04-18T02:13:43.823Z,53.26
2023-04-18T02:16:15.555Z,52.74
2023-04-18T02:18:46.582Z,52.51
2023-04-18T02:21:16.905Z,53.31
2023-04-18T02:23:47.659Z,53.59
2023-04-18T02:26:20.659Z,52.75
2023-04-18T02:28:51.155Z,53.07
2023-04-18T02:31:21.477Z,52.46
2023-04-18T02:33:51.823Z,53.00
2023-04-18T02:36:24.675Z,52.57
2023-04-18T02:38:55.053Z,52.85
2023-04-18T02:41:27.993Z,53.23
2023-04-18T02:43:58.403Z,52.40
2023-04-18T02:46:28.713Z,52.92
2023-04-18T02:48:58.992Z,52.70
2023-04-18T02:51:29.539Z,52.48
2023-04-18T02:53:59.895Z,52.98
2023-04-18T02:56:32.739Z,52.19
2023-04-18T02:59:03.006Z,52.60
2023-04-18T03:01:33.676Z,51.68
2023-04-18T03:04:04.137Z,51.66
2023-04-18T03:06:34.704Z,51.56
2023-04-18T03:09:05.728Z,51.65
2023-04-18T03:11:40.800Z,51.06
2023-04-18T03:14:11.351Z,50.96
2023-04-18T03:16:41.908Z,51.77
2023-04-18T03:19:12.535Z,51.79
2023-04-18T03:21:42.873Z,51.73
2023-04-18T03:24:13.483Z,51.69
2023-04-18T03:26:46.844Z,52.21
2023-04-18T03:29:17.101Z,52.06
2023-04-18T03:31:47.341Z,51.57
2023-04-18T03:34:17.764Z,51.91
2023-04-18T03:36:48.392Z,51.83
2023-04-18T03:39:18.633Z,51.55
2023-04-18T03:41:52.437Z,51.64
2023-04-18T03:44:22.726Z,51.78
2023-04-18T03:46:54.289Z,51.33
2023-04-18T03:49:24.539Z,51.26
2023-04-18T03:51:54.794Z,51.35
2023-04-18T03:54:25.254Z,51.38
2023-04-18T03:56:59.600Z,51.31
2023-04-18T03:59:30.170Z,51.44
2023-04-18T04:02:00.690Z,51.20
2023-04-18T04:04:31.089Z,51.56
2023-04-18T04:07:01.593Z,51.77
2023-04-18T04:09:31.929Z,51.95
2023-04-18T04:12:05.273Z,51.72
2023-04-18T04:14:35.676Z,51.60
2023-04-18T04:17:05.934Z,52.29
2023-04-18T04:19:38.600Z,52.51
2023-04-18T04:22:09.245Z,52.59
2023-04-18T04:24:40.722Z,52.21
2023-04-18T04:27:13.773Z,52.32
2023-04-18T04:29:44.535Z,52.20
2023-04-18T04:32:17.084Z,52.43
2023-04-18T04:34:47.361Z,51.50
2023-04-18T04:37:18.877Z,51.35
2023-04-18T04:39:49.236Z,50.59
2023-04-18T04:42:25.578Z,50.60
2023-04-18T04:44:56.808Z,50.28
2023-04-18T04:47:27.238Z,49.99
2023-04-18T04:49:57.937Z,49.97
2023-04-18T04:52:28.252Z,48.86
2023-04-18T04:54:58.569Z,49.26
2023-04-18T04:57:31.361Z,49.15
2023-04-18T05:00:01.836Z,48.69
2023-04-18T05:02:32.195Z,48.05
2023-04-18T05:05:02.548Z,47.85
2023-04-18T05:07:33.444Z,47.32
2023-04-18T05:10:04.486Z,47.09
2023-04-18T05:12:37.566Z,47.03
2023-04-18T05:15:09.075Z,46.34
2023-04-18T05:17:41.592Z,45.94
2023-04-18T05:20:13.124Z,45.59
2023-04-18T05:22:43.704Z,45.41
2023-04-18T05:25:16.837Z,45.38
2023-04-18T05:27:49.885Z,44.74
2023-04-18T05:30:20.788Z,44.56
2023-04-18T05:32:51.106Z,44.05
2023-04-18T05:35:21.711Z,42.73
2023-04-18T05:37:52.344Z,42.99
2023-04-18T05:40:22.881Z,42.13
2023-04-18T05:42:56.012Z,42.56
2023-04-18T05:45:26.231Z,42.40
2023-04-18T05:47:59.483Z,42.47
2023-04-18T05:50:29.833Z,41.08
2023-04-18T05:53:01.456Z,41.06
2023-04-18T05:55:31.798Z,41.04
2023-04-18T05:58:09.900Z,41.56
2023-04-18T06:00:40.613Z,41.07
2023-04-18T06:03:11.300Z,40.40
2023-04-18T06:05:42.118Z,39.15
2023-04-18T06:08:12.587Z,38.70
2023-04-18T06:10:42.853Z,39.16
2023-04-18T06:13:16.888Z,38.71
2023-04-18T06:15:47.191Z,39.17
2023-04-18T06:18:17.547Z,38.96
2023-04-18T06:20:47.827Z,38.90
2023-04-18T06:23:18.806Z,39.07
2023-04-18T06:25:51.536Z,38.13
2023-04-18T06:28:24.656Z,38.03
2023-04-18T06:30:55.020Z,38.13
2023-04-18T06:33:25.522Z,38.69
2023-04-18T06:35:56.074Z,39.54
2023-04-18T06:38:26.528Z,38.70
2023-04-18T06:40:56.995Z,38.40
2023-04-18T06:43:29.932Z,37.56
2023-04-18T06:46:00.289Z,38.16
2023-04-18T06:48:37.309Z,37.14
2023-04-18T06:51:08.046Z,38.48
2023-04-18T06:53:38.369Z,37.00
2023-04-18T06:56:09.826Z,37.97
2023-04-18T06:58:42.802Z,36.92
2023-04-18T07:01:13.169Z,36.46
2023-04-18T07:03:43.545Z,34.39
2023-04-18T07:06:13.948Z,33.12
2023-04-18T07:08:44.380Z,32.10
2023-04-18T07:11:18.862Z,31.63
2023-04-18T07:13:51.850Z,31.32
2023-04-18T07:16:22.551Z,30.78
2023-04-18T07:18:52.881Z,31.41
2023-04-18T07:21:25.876Z,31.67
2023-04-18T07:23:56.098Z,31.96
2023-04-18T07:26:27.764Z,31.52
2023-04-18T07:29:03.524Z,30.32
2023-04-18T07:31:34.338Z,30.06
2023-04-18T07:34:05.062Z,29.48
2023-04-18T07:36:35.612Z,29.52
2023-04-18T07:39:06.063Z,31.43
2023-04-18T07:41:36.481Z,31.99
2023-04-18T07:44:09.759Z,31.70
2023-04-18T07:46:40.206Z,31.79
2023-04-18T07:49:10.711Z,32.00
2023-04-18T07:51:41.119Z,31.93
2023-04-18T07:54:14.008Z,31.25
2023-04-18T07:56:46.926Z,31.10
2023-04-18T07:59:19.864Z,30.81
2023-04-18T08:01:50.207Z,30.92
2023-04-18T08:04:21.020Z,32.36
2023-04-18T08:06:51.389Z,32.25
2023-04-18T08:09:22.110Z,32.31
2023-04-18T08:11:52.343Z,31.87
2023-04-18T08:14:25.186Z,31.77
2023-04-18T08:16:55.522Z,31.91
2023-04-18T08:19:25.780Z,32.18
2023-04-18T08:21:56.065Z,31.73
2023-04-18T08:24:26.539Z,31.57
2023-04-18T08:26:57.696Z,30.67
2023-04-18T08:29:30.598Z,31.21
2023-04-18T08:32:01.231Z,30.16
2023-04-18T08:34:31.851Z,30.10
2023-04-18T08:37:02.243Z,29.12
2023-04-18T08:39:32.465Z,28.06
2023-04-18T08:42:03.793Z,28.18
2023-04-18T08:44:37.647Z,29.55
2023-04-18T08:47:07.870Z,30.06
2023-04-18T08:49:38.478Z,29.93
2023-04-18T08:52:14.243Z,29.73
2023-04-18T08:54:45.549Z,27.95
2023-04-18T08:57:18.552Z,29.57
2023-04-18T08:59:51.439Z,30.08
2023-04-18T09:02:22.242Z,29.79
2023-04-18T09:04:56.124Z,29.36
2023-04-18T09:07:30.650Z,30.28
2023-04-18T09:10:00.628Z,30.39
2023-04-18T09:12:32.828Z,30.38
2023-04-18T09:15:16.888Z,29.07
2023-04-18T09:17:52.530Z,28.71
2023-04-18T09:20:35.001Z,27.80
2023-04-18T09:23:10.976Z,29.11
2023-04-18T09:25:48.253Z,27.77
2023-04-18T09:28:27.205Z,27.52
2023-04-18T09:31:01.865Z,28.19
2023-04-18T09:33:37.289Z,28.20
2023-04-18T09:36:20.969Z,27.86
2023-04-18T09:38:54.620Z,26.92
2023-04-18T09:41:27.307Z,26.86
2023-04-18T09:44:14.964Z,27.55
2023-04-18T09:46:49.719Z,27.12
2023-04-18T09:49:20.922Z,27.70
2023-04-18T09:51:54.195Z,27.25
2023-04-18T09:54:27.432Z,27.18
2023-04-18T09:56:59.103Z,27.08
2023-04-18T09:59:40.548Z,26.18
2023-04-18T10:02:21.457Z,25.10
2023-04-18T10:04:54.347Z,26.15
2023-04-18T10:07:27.309Z,25.62
2023-04-18T10:09:57.596Z,25.21
2023-04-18T10:12:28.416Z,26.30
2023-04-18T10:14:59.181Z,24.26
2023-04-18T10:17:32.672Z,25.06
2023-04-18T10:20:11.334Z,25.09
2023-04-18T10:22:41.765Z,26.39
2023-04-18T10:25:12.515Z,27.29
2023-04-18T10:28:02.435Z,27.19
2023-04-18T10:30:57.892Z,27.38
2023-04-18T10:33:34.480Z,27.97
2023-04-18T10:36:20.959Z,29.08
2023-04-18T10:38:52.860Z,29.89
2023-04-18T10:41:25.452Z,30.00
2023-04-18T10:44:18.630Z,30.06
2023-04-18T10:47:18.890Z,28.58
2023-04-18T10:50:01.533Z,27.90
2023-04-18T10:52:32.572Z,28.06
2023-04-18T10:55:16.815Z,27.17
2023-04-18T10:57:48.623Z,27.33
2023-04-18T11:00:22.090Z,27.31
2023-04-18T11:02:56.323Z,27.23
2023-04-18T11:05:31.824Z,27.59
2023-04-18T11:08:02.155Z,26.51
2023-04-18T11:10:33.088Z,26.59
2023-04-18T11:13:05.697Z,26.79
2023-04-18T11:15:40.195Z,26.46
2023-04-18T11:18:12.494Z,26.57
2023-04-18T11:20:50.494Z,26.23
2023-04-18T11:23:24.115Z,26.83
2023-04-18T11:25:56.668Z,27.71
2023-04-18T11:28:28.701Z,27.54
2023-04-18T11:31:03.276Z,27.61
2023-04-18T11:33:33.736Z,26.89
2023-04-18T11:36:07.895Z,27.89
2023-04-18T11:38:40.283Z,27.25
2023-04-18T11:41:15.734Z,26.32
2023-04-18T11:43:47.237Z,26.42
2023-04-18T11:46:17.529Z,26.55
2023-04-18T11:48:50.406Z,25.95
2023-04-18T11:51:48.210Z,26.98
2023-04-18T11:54:40.672Z,26.44
2023-04-18T11:57:23.068Z,26.69
2023-04-18T11:59:55.650Z,27.48
2023-04-18T12:02:28.139Z,27.49
2023-04-18T12:05:01.254Z,27.57
2023-04-18T12:07:39.372Z,28.62
2023-04-18T12:10:28.738Z,28.19
2023-04-18T12:13:01.822Z,28.12
2023-04-18T12:15:34.172Z,28.47
2023-04-18T12:18:05.530Z,28.18
2023-04-18T12:20:40.033Z,28.14
2023-04-18T12:23:17.769Z,28.87
2023-04-18T12:25:48.708Z,28.29
2023-04-18T12:28:20.205Z,28.30
2023-04-18T12:30:50.805Z,27.94
2023-04-18T12:33:21.299Z,28.14
2023-04-18T12:35:52.805Z,28.42
2023-04-18T12:38:27.486Z,28.75
2023-04-18T12:40:57.783Z,28.68
2023-04-18T12:43:28.197Z,30.41
2023-04-18T12:45:59.681Z,30.70
2023-04-18T12:48:30.203Z,29.00
2023-04-18T12:51:03.591Z,29.72
2023-04-18T12:53:39.497Z,30.06
2023-04-18T12:56:10.157Z,28.86
2023-04-18T12:58:40.753Z,29.45
2023-04-18T13:01:11.139Z,30.76
2023-04-18T13:03:41.688Z,30.92
2023-04-18T13:06:14.671Z,31.22
2023-04-18T13:08:47.754Z,32.12
2023-04-18T13:11:18.083Z,31.53
2023-04-18T13:13:48.729Z,31.77
2023-04-18T13:16:19.367Z,31.31
2023-04-18T13:18:49.793Z,31.28
2023-04-18T13:21:20.218Z,30.59
2023-04-18T13:23:53.290Z,30.89
2023-04-18T13:26:23.778Z,31.25
2023-04-18T13:28:54.155Z,30.22
2023-04-18T13:31:24.488Z,29.97
2023-04-18T13:33:55.022Z,30.02
2023-04-18T13:36:27.903Z,31.00
2023-04-18T13:39:01.441Z,30.66
2023-04-18T13:41:35.545Z,30.42
2023-04-18T13:44:06.457Z,30.30
2023-04-18T13:46:36.926Z,31.17
2023-04-18T13:49:07.945Z,30.39
2023-04-18T13:51:38.622Z,31.26
2023-04-18T13:54:14.923Z,29.16
2023-04-18T13:56:45.771Z,29.43
2023-04-18T13:59:17.704Z,28.84
2023-04-18T14:01:49.654Z,29.03
2023-04-18T14:04:20.119Z,29.23
2023-04-18T14:06:51.216Z,28.91
2023-04-18T14:09:24.425Z,28.51
2023-04-18T14:11:54.734Z,28.41
2023-04-18T14:14:26.082Z,29.59
2023-04-18T14:16:56.564Z,29.24
2023-04-18T14:19:26.869Z,28.60
2023-04-18T14:21:59.339Z,28.46
2023-04-18T14:24:32.245Z,28.30
2023-04-18T14:27:02.780Z,28.24
2023-04-18T14:29:33.233Z,28.74
2023-04-18T14:32:04.224Z,27.75
2023-04-18T14:34:36.642Z,27.64
2023-04-18T14:37:07.835Z,28.16
2023-04-18T14:39:41.330Z,28.17
2023-04-18T14:42:11.558Z,29.27
2023-04-18T14:44:41.835Z,28.92
2023-04-18T14:47:12.346Z,28.52
2023-04-18T14:49:42.686Z,28.79
2023-04-18T14:52:13.179Z,28.92
2023-04-18T14:54:46.456Z,28.92
2023-04-18T14:57:19.526Z,29.22
2023-04-18T14:59:51.071Z,29.15
2023-04-18T15:02:21.956Z,29.12
2023-04-18T15:04:53.686Z,29.26
2023-04-18T15:07:24.086Z,29.15
2023-04-18T15:09:57.079Z,28.80
2023-04-18T15:12:27.791Z,29.48
2023-04-18T15:14:58.489Z,29.28
2023-04-18T15:17:29.607Z,29.51
2023-04-18T15:20:06.498Z,29.24
2023-04-18T15:22:37.645Z,28.72
2023-04-18T15:25:16.456Z,28.76
2023-04-18T15:27:47.158Z,28.75
2023-04-18T15:30:18.024Z,28.60
2023-04-18T15:32:50.535Z,27.99
2023-04-18T15:35:20.816Z,27.57
2023-04-18T15:37:54.035Z,27.50
2023-04-18T15:40:27.307Z,27.57
2023-04-18T15:42:59.885Z,27.86
2023-04-18T15:45:30.247Z,27.97
2023-04-18T15:48:00.942Z,28.53
2023-04-18T15:50:33.410Z,28.63
2023-04-18T15:53:04.773Z,28.81
2023-04-18T15:55:37.968Z,29.15
2023-04-18T15:58:08.322Z,28.87
2023-04-18T16:00:38.657Z,28.93
2023-04-18T16:03:10.598Z,29.09
2023-04-18T16:05:41.386Z,28.95
2023-04-18T16:08:12.026Z,29.08
2023-04-18T16:10:45.467Z,28.83
2023-04-18T16:13:16.282Z,28.69
2023-04-18T16:15:46.712Z,29.27
2023-04-18T16:18:17.078Z,29.33
2023-04-18T16:20:48.653Z,29.10
2023-04-18T16:23:20.683Z,29.46
2023-04-18T16:25:55.365Z,29.59
2023-04-18T16:28:26.572Z,29.25
2023-04-18T16:30:56.864Z,29.43
2023-04-18T16:33:27.441Z,29.44
2023-04-18T16:36:00.116Z,29.72
2023-04-18T16:38:30.445Z,29.72
2023-04-18T16:41:06.249Z,29.54
2023-04-18T16:43:38.205Z,29.26
2023-04-18T16:46:08.824Z,29.45
2023-04-18T16:48:39.646Z,29.33
2023-04-18T16:51:10.056Z,29.45
2023-04-18T16:53:40.303Z,29.43
2023-04-18T16:56:13.261Z,29.98
2023-04-18T16:58:44.076Z,29.87
2023-04-18T17:01:14.333Z,30.31
2023-04-18T17:03:45.138Z,30.35
2023-04-18T17:06:19.669Z,31.12
2023-04-18T17:08:53.748Z,30.77
2023-04-18T17:11:26.774Z,30.89
2023-04-18T17:13:56.971Z,31.25
2023-04-18T17:16:27.271Z,31.25
2023-04-18T17:18:57.587Z,31.94
2023-04-18T17:21:28.426Z,31.97
2023-04-18T17:23:59.530Z,32.78
2023-04-18T17:26:32.711Z,32.94
2023-04-18T17:29:04.552Z,33.37
2023-04-18T17:31:35.240Z,33.77
2023-04-18T17:34:06.299Z,34.24
2023-04-18T17:36:36.705Z,33.71
2023-04-18T17:39:08.417Z,34.24
2023-04-18T17:41:41.767Z,34.06
2023-04-18T17:44:12.070Z,34.60
2023-04-18T17:46:43.613Z,34.93
2023-04-18T17:49:14.569Z,34.70
2023-04-18T17:51:45.160Z,34.83
2023-04-18T17:54:15.498Z,34.41
2023-04-18T17:56:48.521Z,33.97
2023-04-18T17:59:18.812Z,34.11
2023-04-18T18:01:51.617Z,34.18
2023-04-18T18:04:24.820Z,34.31
2023-04-18T18:06:57.543Z,33.75
2023-04-18T18:09:28.060Z,33.84
2023-04-18T18:12:00.879Z,33.82
2023-04-18T18:14:31.188Z,34.19
2023-04-18T18:17:01.481Z,34.14
2023-04-18T18:19:31.922Z,34.30
2023-04-18T18:22:02.169Z,34.18
2023-04-18T18:24:32.422Z,34.12
2023-04-18T18:27:05.277Z,34.53
2023-04-18T18:29:35.556Z,34.47
2023-04-18T18:32:06.105Z,34.30
2023-04-18T18:34:36.494Z,33.76
2023-04-18T18:37:06.735Z,33.53
2023-04-18T18:39:37.056Z,33.36
2023-04-18T18:42:09.966Z,33.49
2023-04-18T18:44:40.298Z,34.24
2023-04-18T18:47:10.715Z,33.96
2023-04-18T18:49:41.040Z,33.85
2023-04-18T18:52:11.372Z,34.29
2023-04-18T18:54:41.896Z,33.73
2023-04-18T18:57:14.847Z,34.13
2023-04-18T18:59:45.104Z,34.11
2023-04-18T19:02:15.479Z,34.37
2023-04-18T19:04:46.011Z,34.56
2023-04-18T19:07:16.395Z,34.28
2023-04-18T19:09:46.958Z,34.28
2023-04-18T19:12:19.920Z,34.57
2023-04-18T19:14:52.898Z,34.55
2023-04-18T19:17:25.197Z,34.77
2023-04-18T19:19:58.122Z,34.73
2023-04-18T19:22:28.511Z,35.19
2023-04-18T19:25:01.046Z,35.08
2023-04-18T19:27:34.294Z,35.17
2023-04-18T19:30:04.646Z,35.01
2023-04-18T19:32:36.274Z,34.95
2023-04-18T19:35:07.123Z,35.03
2023-04-18T19:37:37.389Z,34.74
2023-04-18T19:40:09.305Z,35.08
2023-04-18T19:42:42.404Z,34.41
2023-04-18T19:45:15.345Z,34.68
2023-04-18T19:47:47.881Z,35.00
2023-04-18T19:50:18.254Z,34.77
2023-04-18T19:52:48.567Z,35.33
2023-04-18T19:55:18.939Z,35.20
2023-04-18T19:57:52.033Z,35.26
2023-04-18T20:00:23.780Z,35.64
2023-04-18T20:02:54.715Z,35.49
2023-04-18T20:05:25.446Z,35.97
2023-04-18T20:07:55.700Z,35.75
2023-04-18T20:10:26.290Z,35.64
2023-04-18T20:12:59.767Z,35.54
2023-04-18T20:15:30.687Z,35.45
2023-04-18T20:18:01.235Z,35.53
2023-04-18T20:20:31.941Z,35.62
2023-04-18T20:23:03.540Z,35.77
2023-04-18T20:25:34.829Z,35.76
2023-04-18T20:28:10.874Z,36.05
2023-04-18T20:30:49.226Z,35.92
2023-04-18T20:33:19.602Z,36.18
2023-04-18T20:35:49.992Z,36.28
2023-04-18T20:38:20.334Z,37.09
2023-04-18T20:40:53.078Z,37.00
2023-04-18T20:43:27.029Z,37.27
2023-04-18T20:45:58.108Z,37.79
2023-04-18T20:48:28.902Z,37.15
2023-04-18T20:50:59.197Z,37.30
2023-04-18T20:53:30.079Z,37.25
2023-04-18T20:56:00.448Z,37.58
2023-04-18T20:58:36.403Z,37.88
2023-04-18T21:01:07.302Z,38.01
2023-04-18T21:03:37.803Z,38.45
2023-04-18T21:06:08.355Z,38.49
2023-04-18T21:08:39.581Z,38.50
2023-04-18T21:11:10.150Z,38.38
2023-04-18T21:13:43.041Z,38.26
2023-04-18T21:16:13.310Z,38.78
2023-04-18T21:18:43.659Z,38.98
2023-04-18T21:21:13.922Z,39.54
2023-04-18T21:23:45.415Z,39.50
2023-04-18T21:26:16.598Z,39.16
2023-04-18T21:29:01.223Z,39.78
2023-04-18T21:31:33.956Z,39.69
2023-04-18T21:34:05.710Z,39.92
2023-04-18T21:36:36.222Z,40.67
2023-04-18T21:39:06.863Z,40.23
2023-04-18T21:41:37.138Z,40.55
2023-04-18T21:44:10.788Z,40.64
2023-04-18T21:46:41.092Z,40.74
2023-04-18T21:49:11.531Z,41.37
2023-04-18T21:51:42.035Z,41.23
2023-04-18T21:54:12.535Z,41.59
2023-04-18T21:56:43.181Z,41.70
2023-04-18T21:59:16.421Z,41.85
2023-04-18T22:01:47.184Z,41.80
2023-04-18T22:04:21.201Z,42.47
2023-04-18T22:06:54.317Z,41.90
2023-04-18T22:09:24.722Z,42.22
2023-04-18T22:11:57.177Z,42.65
2023-04-18T22:14:30.136Z,42.40
2023-04-18T22:17:00.565Z,43.06
2023-04-18T22:19:31.578Z,43.12
2023-04-18T22:22:02.167Z,43.39
2023-04-18T22:24:32.501Z,43.33
2023-04-18T22:27:04.346Z,44.02
2023-04-18T22:29:37.275Z,44.30
2023-04-18T22:32:10.413Z,44.05
2023-04-18T22:34:40.848Z,44.06
2023-04-18T22:37:11.060Z,44.59
2023-04-18T22:39:41.376Z,44.39
2023-04-18T22:42:11.834Z,44.85
2023-04-18T22:44:45.003Z,44.83
2023-04-18T22:47:15.359Z,45.01
2023-04-18T22:49:46.160Z,45.03
2023-04-18T22:52:16.901Z,44.84
2023-04-18T22:54:47.127Z,44.73
2023-04-18T22:57:17.395Z,45.08
2023-04-18T22:59:50.350Z,44.90
2023-04-18T23:02:20.760Z,45.31
2023-04-18T23:04:51.295Z,45.09
2023-04-18T23:07:21.727Z,45.51
2023-04-18T23:09:52.044Z,45.13
2023-04-18T23:12:22.317Z,45.78
2023-04-18T23:14:55.197Z,45.71
2023-04-18T23:17:25.432Z,45.27
2023-04-18T23:19:56.004Z,45.56
2023-04-18T23:22:26.968Z,45.73
2023-04-18T23:24:57.830Z,46.10
2023-04-18T23:27:28.184Z,45.67
2023-04-18T23:30:01.162Z,46.12
2023-04-18T23:32:33.090Z,46.07
2023-04-18T23:35:04.437Z,46.44
2023-04-18T23:37:34.756Z,46.17
2023-04-18T23:40:07.035Z,46.72
2023-04-18T23:42:37.679Z,46.67
2023-04-18T23:45:11.365Z,46.85
2023-04-18T23:47:41.778Z,47.21
2023-04-18T23:50:13.019Z,47.36
2023-04-18T23:52:43.318Z,47.64
2023-04-18T23:55:13.594Z,47.67
2023-04-18T23:57:44.579Z,47.87
